createdAt,value
2019-04-30T00:00:18.349Z,1145.40
2019-04-30T00:01:18.915Z,1138.10
2019-04-30T00:02:16.679Z,1138.00
2019-04-30T00:03:19.572Z,1148.80
2019-04-30T00:04:16.709Z,1145.60
2019-04-30T00:05:18.802Z,1142.40
2019-04-30T00:06:16.718Z,1145.50
2019-04-30T00:07:19.042Z,1138.40
2019-04-30T00:08:16.665Z,1134.50
2019-04-30T00:09:18.961Z,1135.40
2019-04-30T00:10:16.599Z,1154.50
2019-04-30T00:11:19.466Z,1143.80
2019-04-30T00:12:16.572Z,1153.60
2019-04-30T00:13:20.649Z,1150.50
2019-04-30T00:14:16.574Z,1148.50
2019-04-30T00:15:19.429Z,1143.30
2019-04-30T00:16:16.529Z,1155.10
2019-04-30T00:17:19.703Z,1142.20
2019-04-30T00:18:16.636Z,1149.40
2019-04-30T00:19:19.575Z,1160.70
2019-04-30T00:20:17.702Z,1147.60
2019-04-30T00:21:18.675Z,1153.10
2019-04-30T00:22:16.501Z,1155.50
2019-04-30T00:23:18.032Z,1159.20
2019-04-30T00:24:17.440Z,1154.80
2019-04-30T00:25:19.740Z,1146.50
2019-04-30T00:26:17.421Z,1160.20
2019-04-30T00:27:16.439Z,1163.00
2019-04-30T00:28:16.417Z,1158.00
2019-04-30T00:29:19.211Z,1157.80
2019-04-30T00:30:17.382Z,1193.60
2019-04-30T00:31:17.425Z,1200.20
2019-04-30T00:32:17.367Z,1199.30
2019-04-30T00:33:22.256Z,1201.00
2019-04-30T00:34:17.366Z,1206.20
2019-04-30T00:35:19.567Z,1195.50
2019-04-30T00:36:17.326Z,1195.70
2019-04-30T00:37:18.896Z,1188.10
2019-04-30T00:38:16.422Z,1211.50
2019-04-30T00:39:16.807Z,1209.90
2019-04-30T00:40:16.288Z,1233.00
2019-04-30T00:41:16.299Z,1235.00
2019-04-30T00:42:17.256Z,1235.50
2019-04-30T00:43:17.236Z,1239.60
2019-04-30T00:44:19.826Z,1246.60
2019-04-30T00:45:17.244Z,1225.90
2019-04-30T00:46:17.251Z,1231.70
2019-04-30T00:47:17.193Z,1224.30
2019-04-30T00:48:19.390Z,1217.60
2019-04-30T00:49:22.889Z,1228.90
2019-04-30T00:50:17.170Z,1204.80
2019-04-30T00:51:21.008Z,1210.80
2019-04-30T00:52:17.139Z,1185.00
2019-04-30T00:53:16.629Z,1192.50
2019-04-30T00:54:17.692Z,1181.60
2019-04-30T00:55:16.114Z,1175.60
2019-04-30T00:56:19.831Z,1165.80
2019-04-30T00:57:17.114Z,1160.10
2019-04-30T00:58:19.720Z,1141.10
2019-04-30T00:59:17.085Z,1105.60
2019-04-30T01:00:19.792Z,1085.80
2019-04-30T01:01:17.065Z,1113.80
2019-04-30T01:02:20.043Z,1083.50
2019-04-30T01:03:17.069Z,1095.60
2019-04-30T01:04:19.356Z,1116.60
2019-04-30T01:05:17.012Z,1093.10
2019-04-30T01:06:17.248Z,1119.30
2019-04-30T01:07:16.999Z,1113.70
2019-04-30T01:08:15.985Z,1114.20
2019-04-30T01:09:15.987Z,1099.20
2019-04-30T01:10:19.645Z,1099.70
2019-04-30T01:11:16.965Z,1101.20
2019-04-30T01:12:17.368Z,1083.70
2019-04-30T01:13:16.931Z,1107.90
2019-04-30T01:14:16.348Z,1103.90
2019-04-30T01:15:15.899Z,1088.80
2019-04-30T01:16:15.904Z,1087.60
2019-04-30T01:17:15.895Z,1095.40
2019-04-30T01:18:15.872Z,1076.60
2019-04-30T01:19:28.909Z,1075.80
2019-04-30T01:20:16.839Z,1084.90
2019-04-30T01:21:15.873Z,1068.90
2019-04-30T01:22:21.291Z,1057.50
2019-04-30T01:23:16.827Z,1072.30
2019-04-30T01:24:15.815Z,1059.30
2019-04-30T01:25:15.871Z,1049.80
2019-04-30T01:26:15.779Z,1053.80
2019-04-30T01:27:15.790Z,1070.00
2019-04-30T01:28:16.277Z,1066.30
2019-04-30T01:29:15.751Z,1064.70
2019-04-30T01:30:18.617Z,1084.00
2019-04-30T01:31:16.743Z,1074.80
2019-04-30T01:32:17.614Z,1093.10
2019-04-30T01:33:15.746Z,1080.10
2019-04-30T01:34:15.696Z,1093.00
2019-04-30T01:35:15.806Z,1072.60
2019-04-30T01:36:15.677Z,1069.70
2019-04-30T01:37:15.679Z,1079.50
2019-04-30T01:38:15.654Z,1080.00
2019-04-30T01:39:15.685Z,1065.20
2019-04-30T01:40:15.629Z,1073.40
2019-04-30T01:41:15.620Z,1081.20
2019-04-30T01:42:15.612Z,1076.70
2019-04-30T01:43:15.622Z,1088.70
2019-04-30T01:44:15.594Z,1116.80
2019-04-30T01:45:15.577Z,1111.20
2019-04-30T01:46:15.580Z,1105.70
2019-04-30T01:47:15.577Z,1086.60
2019-04-30T01:48:15.541Z,1013.40
2019-04-30T01:49:15.535Z,970.40
2019-04-30T01:50:15.529Z,965.10
2019-04-30T01:51:20.324Z,949.40
2019-04-30T01:52:16.497Z,941.80
2019-04-30T01:53:15.511Z,958.30
2019-04-30T01:54:20.896Z,952.60
2019-04-30T01:55:16.463Z,932.80
2019-04-30T01:56:15.477Z,918.30
2019-04-30T01:57:15.540Z,935.00
2019-04-30T01:58:15.443Z,925.80
2019-04-30T01:59:15.435Z,932.90
2019-04-30T02:00:15.414Z,923.80
2019-04-30T02:01:15.454Z,933.20
2019-04-30T02:02:15.425Z,911.00
2019-04-30T02:03:15.394Z,911.70
2019-04-30T02:04:15.384Z,928.80
2019-04-30T02:05:15.358Z,926.10
2019-04-30T02:06:15.366Z,925.30
2019-04-30T02:07:15.356Z,943.20
2019-04-30T02:08:15.327Z,937.80
2019-04-30T02:09:15.394Z,944.00
2019-04-30T02:10:15.311Z,938.90
2019-04-30T02:11:15.347Z,924.50
2019-04-30T02:12:15.287Z,919.90
2019-04-30T02:13:15.273Z,939.00
2019-04-30T02:14:15.263Z,939.90
2019-04-30T02:15:15.250Z,922.90
2019-04-30T02:16:15.300Z,905.40
2019-04-30T02:17:15.229Z,921.10
2019-04-30T02:18:15.228Z,929.30
2019-04-30T02:19:15.273Z,925.50
2019-04-30T02:20:15.233Z,902.80
2019-04-30T02:21:15.239Z,944.20
2019-04-30T02:22:15.307Z,948.20
2019-04-30T02:23:15.164Z,920.20
2019-04-30T02:24:15.156Z,920.90
2019-04-30T02:25:15.150Z,911.80
2019-04-30T02:26:15.159Z,909.40
2019-04-30T02:27:15.153Z,905.20
2019-04-30T02:28:15.806Z,905.40
2019-04-30T02:29:15.106Z,917.10
2019-04-30T02:30:15.115Z,908.50
2019-04-30T02:31:15.104Z,899.70
2019-04-30T02:32:15.069Z,915.90
2019-04-30T02:33:15.166Z,916.60
2019-04-30T02:34:15.071Z,920.60
2019-04-30T02:35:15.054Z,896.80
2019-04-30T02:36:15.046Z,897.60
2019-04-30T02:37:15.044Z,910.10
2019-04-30T02:38:15.031Z,916.30
2019-04-30T02:39:14.999Z,917.90
2019-04-30T02:40:15.130Z,902.00
2019-04-30T02:41:14.993Z,886.50
2019-04-30T02:42:14.970Z,926.40
2019-04-30T02:43:14.981Z,913.70
2019-04-30T02:44:14.988Z,922.50
2019-04-30T02:45:14.952Z,925.00
2019-04-30T02:46:14.945Z,918.70
2019-04-30T02:47:15.341Z,916.10
2019-04-30T02:48:14.913Z,927.10
2019-04-30T02:49:14.913Z,918.10
2019-04-30T02:50:18.661Z,925.10
2019-04-30T02:51:15.871Z,924.70
2019-04-30T02:52:15.881Z,899.40
2019-04-30T02:53:14.872Z,898.60
2019-04-30T02:54:14.851Z,909.90
2019-04-30T02:55:14.889Z,898.10
2019-04-30T02:56:14.828Z,921.30
2019-04-30T02:57:14.815Z,908.10
2019-04-30T02:58:14.810Z,905.70
2019-04-30T02:59:14.786Z,898.60
2019-04-30T03:00:14.775Z,900.80
2019-04-30T03:01:14.799Z,908.80
2019-04-30T03:02:14.755Z,899.70
2019-04-30T03:03:14.746Z,908.40
2019-04-30T03:04:14.747Z,924.40
2019-04-30T03:05:14.731Z,910.70
2019-04-30T03:06:14.723Z,906.00
2019-04-30T03:07:14.747Z,908.40
2019-04-30T03:08:14.700Z,911.40
2019-04-30T03:09:14.699Z,916.30
2019-04-30T03:10:14.671Z,902.80
2019-04-30T03:11:14.704Z,911.00
2019-04-30T03:12:14.662Z,918.00
2019-04-30T03:13:14.633Z,909.20
2019-04-30T03:14:14.642Z,915.20
2019-04-30T03:15:14.628Z,914.30
2019-04-30T03:16:14.670Z,905.40
2019-04-30T03:17:14.597Z,917.00
2019-04-30T03:18:14.598Z,915.00
2019-04-30T03:19:14.588Z,919.20
2019-04-30T03:20:27.983Z,924.10
2019-04-30T03:21:15.563Z,918.30
2019-04-30T03:22:14.542Z,916.10
2019-04-30T03:23:14.539Z,911.60
2019-04-30T03:24:14.514Z,909.20
2019-04-30T03:25:14.547Z,913.50
2019-04-30T03:26:14.493Z,916.60
2019-04-30T03:27:14.502Z,916.90
2019-04-30T03:28:14.470Z,925.10
2019-04-30T03:29:14.470Z,931.70
2019-04-30T03:30:14.514Z,931.40
2019-04-30T03:31:14.453Z,918.00
2019-04-30T03:32:14.697Z,904.30
2019-04-30T03:33:14.435Z,918.40
2019-04-30T03:34:19.496Z,927.10
2019-04-30T03:35:15.393Z,925.30
2019-04-30T03:36:14.397Z,911.90
2019-04-30T03:37:14.595Z,917.00
2019-04-30T03:38:14.440Z,912.00
2019-04-30T03:39:14.377Z,932.20
2019-04-30T03:40:14.358Z,914.80
2019-04-30T03:41:14.336Z,891.80
2019-04-30T03:42:14.330Z,922.20
2019-04-30T03:43:14.313Z,909.30
2019-04-30T03:44:21.470Z,912.80
2019-04-30T03:45:15.322Z,920.30
2019-04-30T03:46:14.280Z,925.80
2019-04-30T03:47:14.304Z,917.60
2019-04-30T03:48:14.255Z,923.90
2019-04-30T03:49:14.271Z,912.10
2019-04-30T03:50:14.242Z,925.80
2019-04-30T03:51:14.229Z,918.50
2019-04-30T03:52:14.223Z,905.10
2019-04-30T03:53:14.234Z,917.80
2019-04-30T03:54:14.208Z,916.60
2019-04-30T03:55:14.183Z,926.70
2019-04-30T03:56:14.177Z,926.70
2019-04-30T03:57:14.286Z,917.50
2019-04-30T03:58:14.216Z,923.80
2019-04-30T03:59:14.159Z,924.80
2019-04-30T04:00:14.129Z,933.40
2019-04-30T04:01:14.125Z,940.20
2019-04-30T04:02:14.111Z,930.50
2019-04-30T04:03:14.098Z,936.20
2019-04-30T04:04:14.110Z,939.90
2019-04-30T04:05:14.093Z,920.80
2019-04-30T04:06:14.070Z,936.60
2019-04-30T04:07:14.070Z,936.60
2019-04-30T04:08:14.065Z,924.20
2019-04-30T04:09:14.858Z,908.20
2019-04-30T04:10:14.022Z,927.50
2019-04-30T04:11:14.071Z,930.20
2019-04-30T04:12:14.102Z,931.10
2019-04-30T04:13:14.027Z,931.50
2019-04-30T04:14:13.986Z,940.70
2019-04-30T04:15:13.976Z,929.60
2019-04-30T04:16:13.958Z,936.90
2019-04-30T04:17:14.353Z,945.80
2019-04-30T04:18:13.969Z,946.20
2019-04-30T04:19:13.931Z,950.40
2019-04-30T04:20:13.921Z,938.40
2019-04-30T04:21:16.910Z,941.80
2019-04-30T04:22:13.916Z,917.30
2019-04-30T04:23:13.904Z,940.90
2019-04-30T04:24:13.880Z,942.00
2019-04-30T04:25:13.862Z,942.10
2019-04-30T04:26:13.869Z,953.50
2019-04-30T04:27:13.842Z,946.90
2019-04-30T04:28:13.869Z,945.00
2019-04-30T04:29:13.839Z,953.60
2019-04-30T04:30:13.807Z,952.70
2019-04-30T04:31:13.801Z,938.50
2019-04-30T04:32:13.791Z,948.90
2019-04-30T04:33:13.791Z,950.80
2019-04-30T04:34:13.762Z,936.00
2019-04-30T04:35:13.791Z,920.90
2019-04-30T04:36:13.741Z,935.20
2019-04-30T04:37:13.739Z,938.30
2019-04-30T04:38:13.722Z,933.90
2019-04-30T04:39:13.787Z,946.30
2019-04-30T04:40:13.770Z,945.30
2019-04-30T04:41:13.721Z,958.50
2019-04-30T04:42:13.702Z,963.40
2019-04-30T04:43:13.769Z,963.30
2019-04-30T04:44:13.655Z,971.30
2019-04-30T04:45:13.668Z,977.00
2019-04-30T04:46:13.716Z,976.10
2019-04-30T04:47:16.048Z,965.50
2019-04-30T04:50:30.341Z,773.80
2019-04-30T04:51:34.466Z,987.60
2019-04-30T04:52:22.677Z,1000.60
2019-04-30T04:53:21.700Z,998.40
2019-04-30T04:54:21.635Z,1000.30
2019-04-30T04:55:22.379Z,989.30
2019-04-30T04:56:21.603Z,997.50
2019-04-30T04:57:22.961Z,987.80
2019-04-30T04:58:21.899Z,985.30
2019-04-30T04:59:21.589Z,980.00
2019-04-30T05:00:21.593Z,987.80
2019-04-30T05:01:21.568Z,984.00
2019-04-30T05:02:21.563Z,983.70
2019-04-30T05:03:21.548Z,1031.50
2019-04-30T05:04:21.535Z,1023.40
2019-04-30T05:05:21.543Z,1025.10
2019-04-30T05:06:22.305Z,1021.80
2019-04-30T05:07:21.542Z,1056.50
2019-04-30T05:08:21.644Z,1050.60
2019-04-30T05:09:21.641Z,1080.40
2019-04-30T05:10:21.505Z,1074.80
2019-04-30T05:11:21.504Z,1093.00
2019-04-30T05:12:21.434Z,1119.70
2019-04-30T05:13:21.428Z,1116.50
2019-04-30T05:14:21.946Z,1137.10
2019-04-30T05:15:21.418Z,1154.10
2019-04-30T05:16:21.391Z,1157.50
2019-04-30T05:17:21.377Z,1153.80
2019-04-30T05:18:22.812Z,1150.00
2019-04-30T05:19:21.619Z,1156.90
2019-04-30T05:20:21.377Z,1171.00
2019-04-30T05:21:21.351Z,1184.30
2019-04-30T05:22:21.334Z,1192.30
2019-04-30T05:23:21.817Z,1189.40
2019-04-30T05:24:21.313Z,1193.50
2019-04-30T05:25:21.299Z,1207.00
2019-04-30T05:26:22.845Z,1203.90
2019-04-30T05:27:21.300Z,1201.10
2019-04-30T05:28:21.271Z,1179.90
2019-04-30T05:29:21.264Z,1170.40
2019-04-30T05:30:21.296Z,1158.80
2019-04-30T05:31:21.251Z,1165.30
2019-04-30T05:32:21.216Z,1162.30
2019-04-30T05:33:21.248Z,1153.00
2019-04-30T05:34:21.775Z,1117.60
2019-04-30T05:35:21.196Z,1116.80
2019-04-30T05:36:21.189Z,1124.60
2019-04-30T05:37:22.558Z,1140.30
2019-04-30T05:38:21.179Z,1181.90
2019-04-30T05:39:21.209Z,1205.50
2019-04-30T05:40:22.100Z,1224.30
2019-04-30T05:41:21.117Z,1199.10
2019-04-30T05:42:21.137Z,1196.90
2019-04-30T05:43:21.130Z,1210.80
2019-04-30T05:44:21.110Z,1207.80
2019-04-30T05:45:21.075Z,1200.60
2019-04-30T05:46:21.071Z,1203.00
2019-04-30T05:47:21.065Z,1207.40
2019-04-30T05:48:21.045Z,1203.00
2019-04-30T05:49:21.029Z,1209.70
2019-04-30T05:50:21.029Z,1200.20
2019-04-30T05:51:21.378Z,1212.70
2019-04-30T05:52:20.997Z,1196.10
2019-04-30T05:53:20.994Z,1201.10
2019-04-30T05:54:20.999Z,1198.00
2019-04-30T05:55:21.017Z,1210.60
2019-04-30T05:56:21.169Z,1197.00
2019-04-30T05:57:20.945Z,1206.00
2019-04-30T05:58:20.930Z,1204.50
2019-04-30T05:59:20.920Z,1209.60
2019-04-30T06:00:20.921Z,1194.30
2019-04-30T06:01:20.901Z,1193.50
2019-04-30T06:02:20.886Z,1201.90
2019-04-30T06:03:28.077Z,1190.70
2019-04-30T06:04:21.866Z,1193.90
2019-04-30T06:05:20.891Z,1208.00
2019-04-30T06:06:20.847Z,1205.60
2019-04-30T06:07:20.834Z,1201.10
2019-04-30T06:08:20.829Z,1201.90
2019-04-30T06:09:30.929Z,1202.30
2019-04-30T06:10:21.814Z,1206.50
2019-04-30T06:11:20.797Z,1202.90
2019-04-30T06:12:20.788Z,1204.60
2019-04-30T06:13:20.776Z,1209.80
2019-04-30T06:14:20.760Z,1206.60
2019-04-30T06:15:20.757Z,1205.20
2019-04-30T06:16:20.733Z,1205.00
2019-04-30T06:17:20.773Z,1185.60
2019-04-30T06:18:20.713Z,1205.00
2019-04-30T06:19:20.710Z,1194.70
2019-04-30T06:20:21.144Z,1181.40
2019-04-30T06:21:21.636Z,1181.80
2019-04-30T06:22:20.683Z,1183.70
2019-04-30T06:23:20.674Z,1183.60
2019-04-30T06:24:20.657Z,1188.20
2019-04-30T06:25:31.698Z,1164.00
2019-04-30T06:26:21.643Z,1171.60
2019-04-30T06:27:20.644Z,1171.50
2019-04-30T06:28:20.630Z,1162.50
2019-04-30T06:29:20.599Z,1143.90
2019-04-30T06:30:20.585Z,1157.20
2019-04-30T06:31:31.910Z,1156.00
2019-04-30T06:32:21.564Z,1152.60
2019-04-30T06:33:20.557Z,1146.10
2019-04-30T06:34:20.553Z,1150.20
2019-04-30T06:35:20.532Z,1148.10
2019-04-30T06:36:20.532Z,1151.90
2019-04-30T06:37:20.538Z,1141.90
2019-04-30T06:38:20.705Z,1146.20
2019-04-30T06:39:20.492Z,1147.60
2019-04-30T06:40:20.498Z,1135.00
2019-04-30T06:41:20.503Z,1132.90
2019-04-30T06:42:20.457Z,1141.90
2019-04-30T06:43:20.444Z,1116.30
2019-04-30T06:44:20.432Z,1123.10
2019-04-30T06:45:20.433Z,1101.80
2019-04-30T06:46:20.432Z,1103.20
2019-04-30T06:47:32.386Z,1091.30
2019-04-30T06:48:21.391Z,1098.00
2019-04-30T06:49:20.378Z,1078.90
2019-04-30T06:50:20.409Z,1071.60
2019-04-30T06:51:20.374Z,1084.70
2019-04-30T06:52:23.001Z,1077.40
2019-04-30T06:53:20.357Z,1077.50
2019-04-30T06:54:20.322Z,1094.10
2019-04-30T06:55:20.312Z,1087.30
2019-04-30T06:56:20.314Z,1093.70
2019-04-30T06:57:20.310Z,1095.40
2019-04-30T06:58:20.661Z,1105.90
2019-04-30T06:59:20.411Z,1085.60
2019-04-30T07:00:32.682Z,1106.70
2019-04-30T07:01:21.256Z,1092.80
2019-04-30T07:02:20.240Z,1075.90
2019-04-30T07:03:20.267Z,1087.80
2019-04-30T07:04:20.237Z,1121.80
2019-04-30T07:05:21.111Z,1078.70
2019-04-30T07:06:29.083Z,1086.30
2019-04-30T07:07:22.983Z,1052.40
2019-04-30T07:08:20.181Z,1065.80
2019-04-30T07:09:20.191Z,1092.70
2019-04-30T07:10:20.570Z,1043.50
2019-04-30T07:11:20.166Z,1034.10
2019-04-30T07:12:27.357Z,1021.90
2019-04-30T07:13:21.129Z,1023.00
2019-04-30T07:14:20.110Z,1049.80
2019-04-30T07:15:20.127Z,964.10
2019-04-30T07:16:20.115Z,996.00
2019-04-30T07:17:20.074Z,974.20
2019-04-30T07:18:20.084Z,962.80
2019-04-30T07:19:31.858Z,951.70
2019-04-30T07:20:21.069Z,935.40
2019-04-30T07:21:20.393Z,916.40
2019-04-30T07:22:36.203Z,950.60
2019-04-30T07:23:21.022Z,934.70
2019-04-30T07:24:21.070Z,964.40
2019-04-30T07:25:19.989Z,930.20
2019-04-30T07:26:24.351Z,920.80
2019-04-30T07:27:23.926Z,919.00
2019-04-30T07:28:19.993Z,991.20
2019-04-30T07:29:19.946Z,928.80
2019-04-30T07:30:19.930Z,930.60
2019-04-30T07:31:19.971Z,945.10
2019-04-30T07:32:19.977Z,943.90
2019-04-30T07:33:20.984Z,910.50
2019-04-30T07:34:19.902Z,959.80
2019-04-30T07:35:19.900Z,935.20
2019-04-30T07:36:19.879Z,933.00
2019-04-30T07:37:24.295Z,945.70
2019-04-30T07:38:19.879Z,940.10
2019-04-30T07:39:23.547Z,926.20
2019-04-30T07:40:20.819Z,951.40
2019-04-30T07:41:19.812Z,934.60
2019-04-30T07:42:20.660Z,934.70
2019-04-30T07:43:19.803Z,987.60
2019-04-30T07:44:31.176Z,928.20
2019-04-30T07:45:25.424Z,916.90
2019-04-30T07:46:20.779Z,942.50
2019-04-30T07:47:19.837Z,944.10
2019-04-30T07:48:25.838Z,941.60
2019-04-30T07:49:20.801Z,946.70
2019-04-30T07:50:21.560Z,941.90
2019-04-30T07:51:21.250Z,938.30
2019-04-30T07:52:21.630Z,949.70
2019-04-30T07:53:19.693Z,941.40
2019-04-30T07:54:19.685Z,936.90
2019-04-30T07:55:19.852Z,930.00
2019-04-30T07:57:20.672Z,943.20
2019-04-30T07:58:20.454Z,952.30
2019-04-30T07:59:20.268Z,941.80
2019-04-30T08:00:19.675Z,931.50
2019-04-30T08:01:19.799Z,979.20
2019-04-30T08:02:20.750Z,956.70
2019-04-30T08:03:20.654Z,975.20
2019-04-30T08:04:19.562Z,958.40
2019-04-30T08:05:19.947Z,959.20
2019-04-30T08:06:22.145Z,977.90
2019-04-30T08:07:20.151Z,949.80
2019-04-30T08:08:24.985Z,933.20
2019-04-30T08:09:22.256Z,921.20
2019-04-30T08:09:36.800Z,927.70
2019-04-30T08:10:19.552Z,953.30
2019-04-30T08:11:25.623Z,970.70
2019-04-30T08:12:25.903Z,944.80
2019-04-30T08:13:21.894Z,920.00
2019-04-30T08:14:21.121Z,924.50
2019-04-30T08:15:19.923Z,973.80
2019-04-30T08:16:19.440Z,965.80
2019-04-30T08:17:19.474Z,979.90
2019-04-30T08:18:19.418Z,989.20
2019-04-30T08:19:19.398Z,949.60
2019-04-30T08:20:19.781Z,948.00
2019-04-30T08:21:19.377Z,950.90
2019-04-30T08:22:19.764Z,960.70
2019-04-30T08:23:33.054Z,965.60
2019-04-30T08:24:20.347Z,957.80
2019-04-30T08:25:21.906Z,948.30
2019-04-30T08:26:19.362Z,933.10
2019-04-30T08:27:19.825Z,966.10
2019-04-30T08:28:19.313Z,960.90
2019-04-30T08:29:19.527Z,957.60
2019-04-30T08:30:26.253Z,985.50
2019-04-30T08:31:20.276Z,968.30
2019-04-30T08:32:19.261Z,971.60
2019-04-30T08:33:19.467Z,985.60
2019-04-30T08:34:20.119Z,939.90
2019-04-30T08:35:19.805Z,975.60
2019-04-30T08:36:19.766Z,959.20
2019-04-30T08:37:20.226Z,950.40
2019-04-30T08:38:19.241Z,968.80
2019-04-30T08:39:19.759Z,1038.80
2019-04-30T08:40:19.295Z,1018.10
2019-04-30T08:41:19.445Z,970.20
2019-04-30T08:42:31.204Z,971.50
2019-04-30T08:43:20.148Z,947.30
2019-04-30T08:44:21.085Z,968.70
2019-04-30T08:45:19.826Z,953.90
2019-04-30T08:46:19.251Z,993.30
2019-04-30T08:47:21.286Z,971.20
2019-04-30T08:48:19.138Z,934.40
2019-04-30T08:49:19.871Z,983.50
2019-04-30T08:50:20.093Z,976.80
2019-04-30T08:51:19.562Z,972.50
2019-04-30T08:52:19.790Z,969.20
2019-04-30T08:53:27.580Z,1013.70
2019-04-30T08:54:20.383Z,1009.60
2019-04-30T08:55:22.055Z,980.20
2019-04-30T08:56:21.699Z,991.90
2019-04-30T08:57:19.298Z,1007.20
2019-04-30T08:58:20.515Z,974.00
2019-04-30T08:59:19.493Z,970.30
2019-04-30T09:00:19.478Z,1003.50
2019-04-30T09:01:19.729Z,983.50
2019-04-30T09:02:19.722Z,994.90
2019-04-30T09:03:19.481Z,991.90
2019-04-30T09:04:20.151Z,983.80
2019-04-30T09:05:18.899Z,1005.70
2019-04-30T09:06:19.546Z,961.30
2019-04-30T09:07:19.714Z,976.50
2019-04-30T09:08:19.442Z,962.70
2019-04-30T09:09:19.149Z,968.20
2019-04-30T09:10:19.304Z,968.40
2019-04-30T09:11:25.053Z,969.80
2019-04-30T09:12:19.847Z,966.60
2019-04-30T09:13:19.256Z,986.20
2019-04-30T09:14:18.815Z,985.70
2019-04-30T09:15:18.971Z,999.60
2019-04-30T09:16:19.394Z,974.40
2019-04-30T09:17:19.932Z,1050.90
2019-04-30T09:18:19.139Z,1017.10
2019-04-30T09:19:20.986Z,1005.10
2019-04-30T09:20:19.440Z,947.80
2019-04-30T09:21:18.794Z,959.00
2019-04-30T09:22:19.520Z,959.80
2019-04-30T09:23:18.843Z,1001.90
2019-04-30T09:24:19.154Z,995.10
2019-04-30T09:25:19.456Z,970.30
2019-04-30T09:26:18.824Z,953.80
2019-04-30T09:27:19.509Z,969.40
2019-04-30T09:28:19.839Z,1006.00
2019-04-30T09:29:19.129Z,1008.40
2019-04-30T09:30:19.017Z,972.30
2019-04-30T09:31:19.778Z,945.30
2019-04-30T09:32:19.273Z,942.00
2019-04-30T09:33:19.449Z,922.70
2019-04-30T09:34:21.047Z,934.90
2019-04-30T09:35:19.574Z,934.70
2019-04-30T09:36:20.550Z,917.50
2019-04-30T09:37:18.845Z,899.60
2019-04-30T09:38:19.523Z,914.40
2019-04-30T09:39:19.885Z,925.80
2019-04-30T09:40:20.999Z,947.20
2019-04-30T09:41:19.266Z,883.70
2019-04-30T09:42:19.553Z,873.60
2019-04-30T09:43:18.850Z,897.20
2019-04-30T09:44:19.497Z,843.50
2019-04-30T09:45:18.755Z,857.60
2019-04-30T09:46:26.619Z,862.20
2019-04-30T09:47:20.086Z,831.70
2019-04-30T09:48:18.962Z,846.70
2019-04-30T09:49:19.464Z,855.30
2019-04-30T09:50:18.874Z,871.90
2019-04-30T09:51:20.228Z,834.40
2019-04-30T09:52:19.405Z,869.90
2019-04-30T09:53:19.579Z,844.30
2019-04-30T09:54:19.971Z,874.60
2019-04-30T09:55:19.329Z,841.00
2019-04-30T09:56:19.356Z,840.70
2019-04-30T09:57:19.307Z,842.40
2019-04-30T09:58:20.952Z,871.10
2019-04-30T09:59:18.990Z,831.90
2019-04-30T10:00:19.384Z,862.90
2019-04-30T10:01:18.297Z,901.70
2019-04-30T10:02:19.142Z,849.30
2019-04-30T10:03:20.161Z,830.30
2019-04-30T10:04:20.452Z,807.00
2019-04-30T10:05:19.894Z,819.00
2019-04-30T10:06:18.942Z,777.80
2019-04-30T10:07:19.504Z,838.30
2019-04-30T10:08:20.252Z,802.70
2019-04-30T10:09:19.383Z,791.10
2019-04-30T10:10:18.863Z,808.70
2019-04-30T10:11:18.181Z,765.90
2019-04-30T10:12:19.570Z,808.60
2019-04-30T10:13:18.160Z,823.70
2019-04-30T10:14:18.183Z,821.80
2019-04-30T10:15:18.901Z,743.60
2019-04-30T10:16:19.561Z,782.50
2019-04-30T10:17:18.145Z,716.00
2019-04-30T10:18:18.111Z,690.80
2019-04-30T10:19:19.162Z,704.30
2019-04-30T10:20:18.114Z,731.10
2019-04-30T10:21:19.110Z,713.50
2019-04-30T10:22:18.065Z,668.70
2019-04-30T10:23:19.387Z,662.90
2019-04-30T10:24:19.665Z,656.20
2019-04-30T10:25:18.048Z,650.50
2019-04-30T10:26:18.022Z,640.10
2019-04-30T10:27:19.101Z,632.30
2019-04-30T10:28:19.632Z,648.50
2019-04-30T10:29:17.990Z,630.10
2019-04-30T10:30:19.259Z,658.50
2019-04-30T10:31:18.757Z,685.60
2019-04-30T10:32:18.741Z,660.80
2019-04-30T10:33:19.599Z,665.10
2019-04-30T10:34:17.955Z,666.20
2019-04-30T10:35:18.396Z,652.60
2019-04-30T10:36:19.409Z,650.80
2019-04-30T10:37:18.923Z,660.70
2019-04-30T10:38:19.498Z,677.50
2019-04-30T10:39:21.422Z,703.10
2019-04-30T10:40:20.149Z,689.10
2019-04-30T10:41:18.773Z,685.60
2019-04-30T10:42:17.847Z,726.40
2019-04-30T10:43:19.689Z,772.90
2019-04-30T10:44:18.822Z,759.00
2019-04-30T10:45:18.579Z,747.80
2019-04-30T10:46:17.821Z,758.20
2019-04-30T10:47:19.268Z,761.50
2019-04-30T10:48:17.781Z,793.40
2019-04-30T10:49:19.185Z,759.40
2019-04-30T10:50:17.760Z,779.90
2019-04-30T10:51:18.923Z,805.80
2019-04-30T10:52:19.221Z,804.20
2019-04-30T10:53:17.734Z,817.60
2019-04-30T10:54:26.152Z,784.80
2019-04-30T10:55:18.701Z,837.10
2019-04-30T10:56:19.276Z,815.30
2019-04-30T10:57:18.440Z,800.70
2019-04-30T10:58:17.671Z,767.50
2019-04-30T10:59:17.670Z,817.90
2019-04-30T11:00:18.657Z,804.90
2019-04-30T11:01:19.272Z,809.60
2019-04-30T11:02:17.628Z,824.30
2019-04-30T11:03:22.452Z,794.40
2019-04-30T11:04:18.623Z,816.80
2019-04-30T11:05:18.791Z,854.40
2019-04-30T11:06:19.194Z,828.90
2019-04-30T11:07:18.614Z,872.00
2019-04-30T11:08:17.591Z,851.60
2019-04-30T11:09:17.555Z,839.80
2019-04-30T11:10:18.877Z,860.80
2019-04-30T11:11:17.553Z,845.00
2019-04-30T11:12:19.253Z,867.60
2019-04-30T11:13:17.531Z,884.50
2019-04-30T11:14:17.494Z,871.10
2019-04-30T11:15:20.619Z,880.50
2019-04-30T11:16:18.844Z,915.60
2019-04-30T11:17:19.538Z,899.50
2019-04-30T11:18:17.662Z,894.20
2019-04-30T11:19:19.226Z,893.50
2019-04-30T11:20:21.699Z,889.40
2019-04-30T11:21:19.488Z,878.50
2019-04-30T11:22:17.656Z,877.50
2019-04-30T11:23:20.964Z,880.30
2019-04-30T11:24:19.293Z,870.90
2019-04-30T11:25:19.636Z,881.60
2019-04-30T11:26:18.103Z,888.30
2019-04-30T11:27:18.391Z,902.00
2019-04-30T11:28:17.808Z,888.00
2019-04-30T11:29:17.578Z,891.00
2019-04-30T11:30:23.275Z,923.50
2019-04-30T11:31:18.649Z,906.50
2019-04-30T11:32:17.506Z,895.50
2019-04-30T11:33:17.468Z,887.10
2019-04-30T11:34:17.318Z,896.20
2019-04-30T11:35:18.424Z,897.10
2019-04-30T11:36:19.228Z,883.60
2019-04-30T11:37:17.253Z,896.20
2019-04-30T11:38:20.386Z,892.10
2019-04-30T11:39:18.631Z,887.10
2019-04-30T11:40:17.216Z,882.20
2019-04-30T11:41:29.758Z,887.70
2019-04-30T11:42:18.193Z,899.00
2019-04-30T11:43:18.225Z,897.20
2019-04-30T11:44:28.451Z,890.80
2019-04-30T11:45:19.470Z,891.50
2019-04-30T11:46:18.700Z,873.20
2019-04-30T11:47:17.153Z,864.90
2019-04-30T11:48:19.045Z,907.20
2019-04-30T11:49:17.127Z,876.10
2019-04-30T11:50:17.112Z,885.60
2019-04-30T11:51:19.262Z,873.10
2019-04-30T11:52:17.105Z,879.50
2019-04-30T11:53:25.259Z,905.90
2019-04-30T11:54:18.743Z,869.60
2019-04-30T11:55:19.204Z,860.60
2019-04-30T11:56:17.064Z,866.60
2019-04-30T11:57:18.694Z,846.90
2019-04-30T11:58:21.768Z,844.80
2019-04-30T11:59:19.579Z,871.80
2019-04-30T12:00:18.697Z,870.40
2019-04-30T12:01:16.985Z,860.00
2019-04-30T12:02:16.992Z,884.50
2019-04-30T12:03:18.964Z,852.80
2019-04-30T12:04:16.953Z,845.50
2019-04-30T12:05:20.567Z,844.70
2019-04-30T12:06:18.499Z,841.80
2019-04-30T12:07:16.934Z,850.60
2019-04-30T12:08:16.911Z,850.60
2019-04-30T12:09:19.852Z,854.10
2019-04-30T12:10:16.891Z,852.50
2019-04-30T12:11:16.881Z,836.40
2019-04-30T12:12:18.807Z,826.40
2019-04-30T12:13:16.855Z,866.60
2019-04-30T12:14:18.233Z,847.80
2019-04-30T12:15:16.837Z,841.70
2019-04-30T12:16:18.541Z,849.30
2019-04-30T12:17:16.828Z,851.90
2019-04-30T12:18:16.807Z,869.90
2019-04-30T12:19:18.822Z,840.90
2019-04-30T12:20:16.778Z,838.40
2019-04-30T12:21:16.768Z,849.80
2019-04-30T12:22:20.000Z,831.20